Time;durP1;ratioP1;P1;durP2;ratioP2;P2;SDS_P1;SDS_P2;PMS_P1;PMS_P2;Temp;Humidity;BMP_temperature;BMP_pressure;BME280_temperature;BME280_humidity;BME280_pressure;Samples;Min_cycle;Max_cycle;Signal;HPM_P1;HPM_P2
2023/04/10 00:00:58;;;;;;;2.90;1.52;;;;;;;0.77;58.39;103034.28;5029195;28;20084;-74
2023/04/10 00:03:26;;;;;;;3.92;1.27;;;;;;;0.75;58.12;103032.41;5035841;28;20042;-75
2023/04/10 00:05:53;;;;;;;2.85;1.48;;;;;;;0.72;59.04;103034.81;5038789;28;20057;-75
2023/04/10 00:08:21;;;;;;;4.65;1.30;;;;;;;0.72;58.97;103037.38;5027999;28;20049;-75
2023/04/10 00:10:49;;;;;;;3.95;2.03;;;;;;;0.70;58.69;103033.81;5038789;28;20054;-76
2023/04/10 00:13:16;;;;;;;7.25;2.38;;;;;;;0.67;58.38;103030.25;5024423;28;20047;-75
2023/04/10 00:15:43;;;;;;;4.28;1.38;;;;;;;0.64;58.56;103032.66;5032281;28;20155;-75
2023/04/10 00:18:10;;;;;;;2.88;2.03;;;;;;;0.63;59.13;103037.72;5022260;28;20049;-75
2023/04/10 00:20:37;;;;;;;4.88;2.10;;;;;;;0.61;59.16;103032.47;5026607;28;20053;-76
2023/04/10 00:23:04;;;;;;;9.20;1.65;;;;;;;0.59;58.73;103039.22;5023802;28;20041;-75
2023/04/10 00:25:31;;;;;;;7.38;1.75;;;;;;;0.57;58.93;103033.09;5027259;28;20552;-75
2023/04/10 00:27:59;;;;;;;9.95;2.00;;;;;;;0.54;59.10;103032.94;5038459;28;20043;-75
2023/04/10 00:30:26;;;;;;;2.78;1.38;;;;;;;0.50;59.45;103030.97;5036483;28;20505;-76
2023/04/10 00:32:53;;;;;;;4.82;1.40;;;;;;;0.50;58.52;103032.66;5030730;28;20056;-75
2023/04/10 00:35:20;;;;;;;2.47;1.52;;;;;;;0.48;59.43;103024.81;5028855;28;20523;-75
2023/04/10 00:37:48;;;;;;;4.88;1.30;;;;;;;0.40;58.88;103018.38;5032856;28;20049;-76
2023/04/10 00:40:15;;;;;;;2.20;0.95;;;;;;;0.44;59.74;103030.59;5035976;28;20060;-75
2023/04/10 00:42:42;;;;;;;4.95;1.58;;;;;;;0.41;59.39;103028.72;5021864;28;20049;-75
2023/04/10 00:45:11;;;;;;;6.60;2.00;;;;;;;0.37;59.23;103029.38;5039251;28;20048;-75
2023/04/10 00:47:39;;;;;;;4.95;2.17;;;;;;;0.38;59.40;103030.25;5032295;28;20103;-75
2023/04/10 00:50:07;;;;;;;4.68;1.45;;;;;;;0.37;59.49;103041.31;5025781;28;20047;-75
2023/04/10 00:52:35;;;;;;;4.43;1.23;;;;;;;0.36;59.92;103040.41;5035332;28;20395;-75
2023/04/10 00:55:02;;;;;;;6.07;1.83;;;;;;;0.32;59.52;103038.47;5021278;28;20064;-76
2023/04/10 00:57:29;;;;;;;4.90;1.88;;;;;;;0.26;60.13;103029.50;5035244;28;20446;-76
2023/04/10 00:59:56;;;;;;;3.95;1.30;;;;;;;0.31;59.90;103046.09;5031002;28;20054;-77
2023/04/10 01:02:25;;;;;;;4.53;1.63;;;;;;;0.29;59.90;103043.44;5030913;28;20041;-77
2023/04/10 01:04:52;;;;;;;3.65;1.48;;;;;;;0.28;59.59;103045.91;5043589;28;20126;-77
2023/04/10 01:07:32;;;;;;;4.57;1.70;;;;;;;0.27;60.28;103049.28;5037765;28;20050;-77
2023/04/10 01:10:03;;;;;;;8.38;1.58;;;;;;;0.25;59.83;103045.72;5041046;28;20144;-76
2023/04/10 01:12:54;;;;;;;3.65;1.27;;;;;;;0.23;60.19;103045.66;5035906;28;20128;-77
2023/04/10 01:15:25;;;;;;;3.22;1.23;;;;;;;0.19;60.09;103038.53;5048124;28;20437;-76
2023/04/10 01:18:01;;;;;;;4.95;1.92;;;;;;;0.17;60.07;103038.47;5033364;28;20060;-77
2023/04/10 01:20:32;;;;;;;4.50;1.67;;;;;;;0.17;60.11;103034.97;5038514;28;20045;-77
2023/04/10 01:23:20;;;;;;;4.93;1.85;;;;;;;0.16;60.01;103039.22;5035727;28;20045;-77
2023/04/10 01:25:53;;;;;;;3.38;1.60;;;;;;;0.15;60.54;103039.16;5043680;28;20041;-77
2023/04/10 01:28:33;;;;;;;2.72;1.33;;;;;;;0.10;60.46;103028.59;5036485;28;20052;-77
2023/04/10 01:31:03;;;;;;;4.65;1.35;;;;;;;0.12;60.13;103039.84;5043404;28;20045;-77
2023/04/10 01:33:35;;;;;;;3.72;1.70;;;;;;;0.10;60.36;103038.88;5042041;28;20045;-76
2023/04/10 01:36:06;;;;;;;5.60;2.00;;;;;;;0.09;60.13;103044.81;5030314;28;20041;-77
2023/04/10 01:38:34;;;;;;;3.40;1.83;;;;;;;0.06;59.99;103041.13;5031070;28;20059;-77
2023/04/10 01:41:01;;;;;;;2.83;1.58;;;;;;;0.07;60.07;103048.97;5026700;28;20422;-77
2023/04/10 01:43:31;;;;;;;5.07;1.63;;;;;;;0.05;60.23;103042.81;5040691;28;20044;-77
2023/04/10 01:45:59;;;;;;;2.53;1.40;;;;;;;0.04;60.72;103047.91;5039214;28;20049;-77
2023/04/10 01:48:28;;;;;;;6.40;1.63;;;;;;;0.03;60.27;103041.88;5043187;28;20084;-77
2023/04/10 01:50:56;;;;;;;4.80;1.58;;;;;;;0.02;60.39;103046.91;5028959;28;20045;-77
2023/04/10 01:53:24;;;;;;;4.63;1.90;;;;;;;0.00;59.90;103041.69;5029795;28;20417;-77
2023/04/10 01:55:53;;;;;;;2.58;1.85;;;;;;;0.01;59.99;103047.72;5032562;28;20045;-77
2023/04/10 01:58:20;;;;;;;5.25;1.95;;;;;;;-0.01;60.86;103040.78;5038029;28;20555;-77
2023/04/10 02:00:47;;;;;;;3.90;1.92;;;;;;;-0.01;60.40;103042.47;5049824;28;20081;-77
2023/04/10 02:03:14;;;;;;;8.27;2.38;;;;;;;-0.02;60.14;103036.44;5030165;28;20067;-77
2023/04/10 02:05:52;;;;;;;3.58;1.77;;;;;;;-0.03;60.56;103037.25;5041715;28;20057;-80
2023/04/10 02:08:26;;;;;;;5.97;1.63;;;;;;;-0.06;60.49;103036.16;5030782;28;20486;-77
2023/04/10 02:10:58;;;;;;;3.37;1.63;;;;;;;-0.05;61.00;103035.38;5033681;28;20488;-77
2023/04/10 02:13:28;;;;;;;6.22;1.83;;;;;;;-0.13;60.57;103024.63;5045064;28;20041;-76
2023/04/10 02:15:58;;;;;;;5.85;1.90;;;;;;;-0.12;60.66;103030.63;5029054;28;20053;-78
2023/04/10 02:18:26;;;;;;;3.83;1.73;;;;;;;-0.09;60.64;103033.38;5041728;28;20707;-77
2023/04/10 02:20:56;;;;;;;4.60;2.28;;;;;;;-0.10;60.46;103029.06;5037295;28;20049;-77
2023/04/10 02:23:23;;;;;;;5.55;1.85;;;;;;;-0.12;60.34;103036.66;5041552;28;20125;-77
2023/04/10 02:25:50;;;;;;;3.13;1.92;;;;;;;-0.18;61.04;103027.69;5036013;28;20482;-77
2023/04/10 02:28:17;;;;;;;5.53;2.17;;;;;;;-0.14;60.48;103033.13;5034800;28;20485;-77
2023/04/10 02:30:44;;;;;;;6.68;2.05;;;;;;;-0.14;60.75;103027.06;5031267;28;20814;-77
2023/04/10 02:33:11;;;;;;;5.25;1.77;;;;;;;-0.15;60.86;103033.03;5034366;28;20046;-77
2023/04/10 02:35:38;;;;;;;10.13;3.17;;;;;;;-0.19;60.53;103023.38;5039554;28;20055;-76
2023/04/10 02:38:06;;;;;;;3.47;1.67;;;;;;;-0.17;60.96;103032.03;5031986;28;20068;-77
2023/04/10 02:40:33;;;;;;;6.18;2.53;;;;;;;-0.21;60.96;103022.38;5042825;28;20057;-77
2023/04/10 02:43:01;;;;;;;7.80;2.03;;;;;;;-0.28;61.28;103009.16;5031820;28;20405;-77
2023/04/10 02:45:27;;;;;;;6.72;3.28;;;;;;;-0.24;60.61;103016.25;5030318;28;20048;-77
2023/04/10 02:47:54;;;;;;;10.15;2.85;;;;;;;-0.20;60.54;103021.56;5043344;28;20058;-77
2023/04/10 02:50:21;;;;;;;6.90;2.85;;;;;;;-0.21;61.07;103024.94;5027522;28;20449;-77
2023/04/10 02:52:48;;;;;;;4.88;2.30;;;;;;;-0.22;61.09;103023.19;5040539;28;20757;-77
2023/04/10 02:55:17;;;;;;;5.30;2.20;;;;;;;-0.24;61.13;103018.81;5035564;28;20087;-77
2023/04/10 02:57:44;;;;;;;6.25;2.83;;;;;;;-0.24;61.12;103017.94;5039079;28;20041;-76
2023/04/10 03:00:12;;;;;;;8.00;2.95;;;;;;;-0.26;60.81;103014.38;5043180;28;20048;-73
2023/04/10 03:02:39;;;;;;;4.72;2.15;;;;;;;-0.26;61.01;103024.66;5034869;28;20409;-72
2023/04/10 03:05:07;;;;;;;8.45;2.92;;;;;;;-0.29;61.38;103017.63;5033179;28;20045;-73
2023/04/10 03:07:34;;;;;;;8.05;2.72;;;;;;;-0.29;60.56;103017.63;5039133;28;20049;-73
2023/04/10 03:10:01;;;;;;;3.00;2.47;;;;;;;-0.29;60.75;103017.63;5034220;28;20049;-73
2023/04/10 03:12:30;;;;;;;5.22;2.38;;;;;;;-0.30;61.31;103018.44;5035477;28;20212;-73
2023/04/10 03:14:57;;;;;;;5.65;2.63;;;;;;;-0.30;61.27;103026.16;5038743;28;20049;-76
2023/04/10 03:17:24;;;;;;;4.90;2.38;;;;;;;-0.32;61.13;103025.16;5035027;28;20045;-75
2023/04/10 03:19:50;;;;;;;8.05;2.85;;;;;;;-0.35;61.10;103024.97;5034234;28;20053;-72
2023/04/10 03:22:17;;;;;;;6.60;2.58;;;;;;;-0.34;61.21;103024.19;5035174;28;20049;-72
2023/04/10 03:24:44;;;;;;;4.80;3.05;;;;;;;-0.36;61.28;103023.19;5035319;28;20053;-73
2023/04/10 03:27:11;;;;;;;6.30;2.95;;;;;;;-0.37;60.77;103023.09;5034106;28;20053;-73
2023/04/10 03:29:39;;;;;;;8.02;3.03;;;;;;;-0.37;61.78;103025.66;5034346;28;20505;-73
2023/04/10 03:32:06;;;;;;;7.00;2.53;;;;;;;-0.39;61.29;103025.59;5027760;28;20045;-73
2023/04/10 03:34:33;;;;;;;8.07;2.58;;;;;;;-0.39;61.12;103023.00;5032316;28;20052;-73
2023/04/10 03:37:00;;;;;;;7.00;3.30;;;;;;;-0.42;60.99;103019.38;5024768;28;20060;-76
2023/04/10 03:39:28;;;;;;;5.18;2.42;;;;;;;-0.43;61.74;103023.59;5020340;28;20507;-72
2023/04/10 03:41:54;;;;;;;5.68;3.03;;;;;;;-0.44;61.70;103016.69;5017103;28;20045;-73
2023/04/10 03:44:21;;;;;;;3.92;2.28;;;;;;;-0.45;61.05;103009.81;5029679;28;20481;-73
2023/04/10 03:46:50;;;;;;;6.95;2.25;;;;;;;-0.46;61.14;103018.28;5038391;28;20048;-73
2023/04/10 03:49:17;;;;;;;6.50;2.47;;;;;;;-0.47;61.36;103016.50;5025750;28;20041;-73
2023/04/10 03:51:44;;;;;;;4.72;2.20;;;;;;;-0.47;61.80;103016.50;5030253;28;20049;-73
2023/04/10 03:54:11;;;;;;;3.47;2.55;;;;;;;-0.48;61.60;103015.63;5028515;28;20686;-73
2023/04/10 03:56:37;;;;;;;6.13;2.00;;;;;;;-0.49;61.34;103018.97;5029553;28;20041;-73
2023/04/10 03:59:04;;;;;;;4.32;2.35;;;;;;;-0.49;61.57;103011.25;5037262;28;20059;-73
2023/04/10 04:01:32;;;;;;;4.80;2.50;;;;;;;-0.49;61.29;103012.94;5024678;28;20064;-73
2023/04/10 04:04:00;;;;;;;5.20;2.55;;;;;;;-0.50;61.57;103013.75;5034873;28;20038;-72
2023/04/10 04:06:27;;;;;;;3.78;2.35;;;;;;;-0.51;61.54;103010.31;5024806;28;20059;-73
2023/04/10 04:08:54;;;;;;;7.43;3.20;;;;;;;-0.50;61.16;103006.06;5028201;28;20055;-73
2023/04/10 04:11:21;;;;;;;5.28;3.00;;;;;;;-0.52;61.54;103007.63;5032419;28;20486;-73
2023/04/10 04:13:48;;;;;;;4.35;2.35;;;;;;;-0.53;61.68;103006.75;5041418;28;20052;-72
2023/04/10 04:16:15;;;;;;;5.85;2.72;;;;;;;-0.53;62.34;103005.88;5030570;28;20037;-73
2023/04/10 04:18:42;;;;;;;7.60;2.97;;;;;;;-0.53;61.62;103000.72;5039593;28;20042;-73
2023/04/10 04:21:10;;;;;;;5.00;2.72;;;;;;;-0.53;61.80;103006.75;5033822;28;20057;-73
2023/04/10 04:23:37;;;;;;;3.85;2.58;;;;;;;-0.54;61.94;102999.84;5021988;28;20052;-73
2023/04/10 04:26:04;;;;;;;4.82;2.58;;;;;;;-0.54;61.92;103006.63;5028889;28;20045;-73
2023/04/10 04:28:31;;;;;;;5.95;2.70;;;;;;;-0.54;62.23;103006.63;5029434;28;20061;-73
2023/04/10 04:30:58;;;;;;;6.15;2.30;;;;;;;-0.54;61.94;103006.63;5021240;28;20045;-73
2023/04/10 04:33:25;;;;;;;5.07;2.72;;;;;;;-0.58;62.22;103002.09;5036958;28;20390;-73
2023/04/10 04:35:52;;;;;;;4.63;2.20;;;;;;;-0.53;62.26;103016.13;5021616;28;21184;-72
2023/04/10 04:38:20;;;;;;;4.38;2.17;;;;;;;-0.53;62.22;103014.44;5038843;28;20412;-73
2023/04/10 04:40:47;;;;;;;6.15;2.60;;;;;;;-0.50;62.46;103016.31;5026683;28;20167;-72
2023/04/10 04:43:14;;;;;;;3.22;2.38;;;;;;;-0.50;62.57;103017.19;5032522;28;20137;-73
2023/04/10 04:45:41;;;;;;;9.43;2.67;;;;;;;-0.48;62.52;103018.19;5038548;28;20053;-73
2023/04/10 04:48:08;;;;;;;7.03;2.90;;;;;;;-0.45;62.24;103020.06;5026169;28;20037;-72
2023/04/10 04:50:35;;;;;;;3.30;1.88;;;;;;;-0.44;62.14;103024.41;5036852;28;20060;-72
2023/04/10 04:53:02;;;;;;;6.57;2.40;;;;;;;-0.41;62.34;103024.59;5036173;28;20045;-73
2023/04/10 04:55:30;;;;;;;6.20;2.25;;;;;;;-0.37;62.46;103024.00;5029900;28;20047;-72
2023/04/10 04:57:57;;;;;;;3.53;2.20;;;;;;;-0.34;63.19;103018.13;5036948;28;20053;-73
2023/04/10 05:00:24;;;;;;;5.00;2.55;;;;;;;-0.32;62.76;103025.16;5026300;28;20060;-72
2023/04/10 05:02:51;;;;;;;5.30;2.72;;;;;;;-0.29;63.15;103027.91;5029560;28;20041;-73
2023/04/10 05:05:18;;;;;;;7.05;2.70;;;;;;;-0.27;63.17;103020.31;5029942;28;20405;-72
2023/04/10 05:07:44;;;;;;;5.07;2.67;;;;;;;-0.20;63.21;103026.69;5031681;28;20130;-73
2023/04/10 05:10:11;;;;;;;5.70;2.47;;;;;;;-0.20;62.70;103017.31;5036392;28;20045;-72
2023/04/10 05:12:40;;;;;;;3.67;2.45;;;;;;;-0.16;63.10;103018.41;5024471;28;20055;-72
2023/04/10 05:15:08;;;;;;;4.03;2.30;;;;;;;-0.10;63.12;103018.78;5029392;28;20441;-72
2023/04/10 05:17:35;;;;;;;6.70;2.75;;;;;;;-0.05;63.39;103027.66;5031703;28;20049;-73
2023/04/10 05:20:03;;;;;;;5.30;3.53;;;;;;;-0.02;63.23;103027.84;5023146;28;20041;-72
2023/04/10 05:22:31;;;;;;;4.65;2.47;;;;;;;0.01;63.64;103028.03;5036222;28;20137;-72
2023/04/10 05:24:59;;;;;;;5.22;2.38;;;;;;;0.04;63.13;103015.38;5030702;28;20412;-73
2023/04/10 05:27:26;;;;;;;3.58;2.53;;;;;;;0.10;63.71;103023.44;5018918;28;20050;-73
2023/04/10 05:29:54;;;;;;;7.07;2.95;;;;;;;0.13;63.07;103018.47;5036223;28;20049;-72
2023/04/10 05:32:22;;;;;;;4.25;2.83;;;;;;;0.18;63.59;103022.22;5031447;28;20053;-74
2023/04/10 05:34:48;;;;;;;4.25;2.47;;;;;;;0.23;63.08;103019.94;5029354;28;20413;-73
2023/04/10 05:37:15;;;;;;;7.05;2.92;;;;;;;0.21;63.03;103006.09;5026575;28;20077;-73
2023/04/10 05:39:42;;;;;;;6.32;2.70;;;;;;;0.31;63.90;103012.66;5036741;28;20053;-74
2023/04/10 05:42:09;;;;;;;6.50;3.05;;;;;;;0.35;63.80;103010.38;5024045;28;20049;-73
2023/04/10 05:44:36;;;;;;;4.50;2.75;;;;;;;0.40;64.37;103010.66;5030420;28;20041;-73
2023/04/10 05:47:04;;;;;;;5.15;3.13;;;;;;;0.44;63.79;103015.19;5032820;28;20059;-73
2023/04/10 05:49:31;;;;;;;4.35;3.22;;;;;;;0.49;63.64;103011.19;5027295;28;20056;-72
2023/04/10 05:51:58;;;;;;;4.65;2.70;;;;;;;0.49;64.16;103003.47;5023681;28;20060;-72
2023/04/10 05:54:25;;;;;;;7.35;3.25;;;;;;;0.60;63.40;103009.25;5030657;28;20045;-71
2023/04/10 05:56:52;;;;;;;6.35;2.88;;;;;;;0.63;64.37;103007.75;5028503;28;20037;-71
2023/04/10 05:59:19;;;;;;;5.57;2.58;;;;;;;0.69;64.42;103012.34;5032145;28;20508;-72
2023/04/10 06:01:47;;;;;;;6.90;2.95;;;;;;;0.73;64.31;103003.13;5024792;28;20057;-72
2023/04/10 06:04:15;;;;;;;7.47;3.00;;;;;;;0.81;64.79;103004.44;5034182;28;20049;-72
2023/04/10 06:06:42;;;;;;;4.90;2.45;;;;;;;0.86;64.35;103001.34;5033112;28;20056;-72
2023/04/10 06:09:09;;;;;;;4.97;2.95;;;;;;;0.93;64.59;103002.56;5029236;28;20053;-71
2023/04/10 06:11:36;;;;;;;5.10;3.35;;;;;;;0.97;64.73;102999.38;5028586;28;20094;-69
2023/04/10 06:14:03;;;;;;;4.32;3.00;;;;;;;1.05;64.31;102997.22;5034181;28;20046;-70
2023/04/10 06:16:30;;;;;;;5.15;3.67;;;;;;;1.10;65.05;102993.22;5027670;28;20587;-71
2023/04/10 06:18:57;;;;;;;6.18;4.05;;;;;;;1.19;64.98;102995.41;5023454;28;20188;-71
2023/04/10 06:21:25;;;;;;;4.75;3.08;;;;;;;1.24;65.00;102994.00;5033600;28;20052;-71
2023/04/10 06:23:52;;;;;;;4.93;2.90;;;;;;;1.28;64.37;102991.69;5020275;28;20048;-71
2023/04/10 06:26:19;;;;;;;6.28;3.42;;;;;;;1.34;64.39;102986.00;5030742;28;20045;-71
2023/04/10 06:28:46;;;;;;;5.60;3.15;;;;;;;1.40;64.61;102991.47;5033845;28;20053;-71
2023/04/10 06:31:13;;;;;;;6.80;3.15;;;;;;;1.44;64.32;102988.25;5036607;28;20414;-71
2023/04/10 06:33:40;;;;;;;7.13;3.83;;;;;;;1.51;64.24;102984.34;5039372;28;20057;-70
2023/04/10 06:36:08;;;;;;;5.22;2.67;;;;;;;1.57;64.60;102982.97;5018549;28;20051;-70
2023/04/10 06:38:36;;;;;;;7.07;3.33;;;;;;;1.64;64.83;102988.44;5031251;28;20048;-73
2023/04/10 06:41:05;;;;;;;4.13;3.10;;;;;;;1.70;64.43;102981.03;5028783;28;20053;-78
2023/04/10 06:43:34;;;;;;;2.92;2.45;;;;;;;1.76;64.87;102981.34;5032595;28;20084;-73
2023/04/10 06:46:01;;;;;;;2.85;2.53;;;;;;;1.86;64.54;102978.47;5027469;28;20149;-73
2023/04/10 06:48:28;;;;;;;4.28;2.72;;;;;;;1.90;64.17;102969.19;5033377;28;20060;-73
2023/04/10 06:50:55;;;;;;;5.75;2.60;;;;;;;2.00;64.05;102971.47;5025105;28;20068;-74
2023/04/10 06:53:22;;;;;;;5.85;2.45;;;;;;;2.11;64.11;102970.31;5029204;28;20053;-73
2023/04/10 06:55:50;;;;;;;4.40;2.60;;;;;;;2.19;63.53;102973.28;5031071;28;20473;-74
2023/04/10 06:58:17;;;;;;;6.55;3.05;;;;;;;2.28;63.96;102963.44;5024106;28;20469;-74
2023/04/10 07:00:44;;;;;;;6.22;2.65;;;;;;;2.41;63.77;102960.66;5026541;28;20053;-74
2023/04/10 07:03:11;;;;;;;3.40;2.25;;;;;;;2.52;64.06;102962.91;5023285;28;20501;-75
2023/04/10 07:05:38;;;;;;;5.32;2.83;;;;;;;2.63;63.98;102957.44;5027124;28;20065;-73
2023/04/10 07:08:05;;;;;;;5.82;2.40;;;;;;;2.75;63.78;102957.16;5027268;28;20036;-74
2023/04/10 07:10:32;;;;;;;3.85;2.05;;;;;;;2.89;63.67;102948.38;5031647;28;20065;-74
2023/04/10 07:13:01;;;;;;;4.68;2.20;;;;;;;3.08;63.95;102951.84;5030852;28;20123;-75
2023/04/10 07:15:28;;;;;;;4.63;1.67;;;;;;;3.21;63.66;102941.28;5033609;28;20168;-74
2023/04/10 07:17:55;;;;;;;2.90;1.67;;;;;;;3.42;63.23;102956.91;5038451;28;20044;-74
2023/04/10 07:20:22;;;;;;;4.00;2.08;;;;;;;3.56;63.05;102947.19;5035101;28;20052;-75
2023/04/10 07:22:49;;;;;;;2.78;1.65;;;;;;;3.70;63.23;102953.88;5036883;28;20390;-76
2023/04/10 07:25:17;;;;;;;3.92;1.60;;;;;;;3.85;62.72;102960.53;5037670;28;20045;-75
2023/04/10 07:27:44;;;;;;;2.70;1.65;;;;;;;3.91;62.92;102945.28;5036115;28;20484;-75
2023/04/10 07:30:12;;;;;;;3.92;1.20;;;;;;;4.17;62.03;102955.03;5033069;28;20037;-75
2023/04/10 07:32:40;;;;;;;1.90;1.23;;;;;;;4.33;61.92;102948.81;5036431;28;20060;-75
2023/04/10 07:35:08;;;;;;;4.15;2.13;;;;;;;4.48;61.79;102954.63;5041425;28;20045;-76
2023/04/10 07:37:35;;;;;;;2.85;1.33;;;;;;;4.66;61.25;102946.72;5038543;28;20626;-76
2023/04/10 07:40:02;;;;;;;1.65;1.00;;;;;;;4.86;61.48;102949.25;5041460;28;20049;-75
2023/04/10 07:42:30;;;;;;;3.22;1.20;;;;;;;4.97;60.83;102950.56;5042855;28;20045;-76
2023/04/10 07:44:57;;;;;;;2.22;0.93;;;;;;;5.12;60.83;102958.03;5046569;28;20044;-76
2023/04/10 07:47:26;;;;;;;1.52;1.08;;;;;;;5.29;60.28;102950.91;5044784;28;20049;-76
2023/04/10 07:49:53;;;;;;;2.55;0.80;;;;;;;5.47;59.53;102948.16;5038597;28;20490;-76
2023/04/10 07:52:19;;;;;;;1.35;0.60;;;;;;;5.68;59.34;102955.84;5042914;28;20037;-75
2023/04/10 07:54:46;;;;;;;3.05;0.80;;;;;;;5.88;58.54;102948.78;5043429;28;20044;-76
2023/04/10 07:57:13;;;;;;;3.83;1.00;;;;;;;6.06;58.14;102950.34;5039335;28;20045;-76
2023/04/10 07:59:40;;;;;;;1.83;0.70;;;;;;;6.25;58.50;102946.66;5045193;28;20167;-76
2023/04/10 08:02:07;;;;;;;2.08;0.70;;;;;;;6.39;58.02;102949.72;5042717;28;20521;-76
2023/04/10 08:04:35;;;;;;;1.50;0.70;;;;;;;6.55;57.93;102947.66;5035466;28;20049;-76
2023/04/10 08:07:02;;;;;;;1.20;0.40;;;;;;;6.68;58.07;102947.19;5043270;28;20051;-76
2023/04/10 08:09:29;;;;;;;1.38;0.68;;;;;;;6.82;56.73;102945.06;5043162;28;20493;-76
2023/04/10 08:11:57;;;;;;;6.38;0.50;;;;;;;6.95;56.66;102945.50;5042695;28;20053;-76
2023/04/10 08:14:23;;;;;;;5.13;0.68;;;;;;;7.12;55.81;102950.34;5046892;28;20108;-75
2023/04/10 08:16:50;;;;;;;0.98;0.60;;;;;;;7.28;55.51;102942.16;5042077;28;20053;-76
2023/04/10 08:19:17;;;;;;;5.78;1.25;;;;;;;7.42;54.70;102942.56;5043343;28;20508;-76
2023/04/10 08:21:45;;;;;;;0.60;0.40;;;;;;;7.56;54.13;102937.75;5043263;28;20056;-76
2023/04/10 08:24:12;;;;;;;0.98;0.43;;;;;;;7.72;54.09;102942.56;5042662;28;20060;-76
2023/04/10 08:26:39;;;;;;;2.17;0.40;;;;;;;7.80;54.17;102921.97;5040183;28;20050;-76
2023/04/10 08:29:06;;;;;;;3.47;0.40;;;;;;;7.98;52.89;102932.00;5043051;28;20420;-76
2023/04/10 08:31:33;;;;;;;1.23;0.60;;;;;;;8.13;52.86;102940.19;5045488;28;20052;-76
2023/04/10 08:34:00;;;;;;;1.83;0.50;;;;;;;8.25;52.23;102937.03;5044637;28;20481;-76
2023/04/10 08:36:28;;;;;;;0.82;0.35;;;;;;;8.34;52.07;102930.34;5041995;28;20050;-76
2023/04/10 08:38:56;;;;;;;2.00;0.40;;;;;;;8.45;51.70;102934.97;5038841;28;20056;-76
2023/04/10 08:41:23;;;;;;;1.13;0.30;;;;;;;8.51;51.06;102930.81;5041843;28;20052;-76
2023/04/10 08:43:50;;;;;;;1.33;0.30;;;;;;;8.60;51.78;102929.28;5041091;28;20052;-76
2023/04/10 08:46:17;;;;;;;0.52;0.30;;;;;;;8.67;51.74;102932.03;5043363;28;20676;-76
2023/04/10 08:48:48;;;;;;;0.43;0.30;;;;;;;8.72;51.20;102917.41;5035879;28;20049;-76
2023/04/10 08:51:19;;;;;;;0.60;0.30;;;;;;;8.78;49.94;102924.47;5035151;28;20543;-76
2023/04/10 08:53:50;;;;;;;1.80;0.45;;;;;;;8.81;50.09;102918.47;5040788;28;20144;-75
2023/04/10 08:56:19;;;;;;;0.95;0.30;;;;;;;8.87;50.27;102916.88;5041114;28;20107;-76
2023/04/10 08:58:47;;;;;;;0.30;0.20;;;;;;;8.89;49.87;102919.53;5040937;28;20132;-76
2023/04/10 09:01:14;;;;;;;0.45;0.20;;;;;;;8.89;49.21;102906.50;5040980;28;20418;-76
2023/04/10 09:03:41;;;;;;;1.27;0.20;;;;;;;8.91;49.66;102908.28;5042609;28;20136;-76
2023/04/10 09:06:09;;;;;;;1.10;0.35;;;;;;;8.94;49.29;102902.28;5038140;28;20056;-76
2023/04/10 09:08:35;;;;;;;0.77;0.22;;;;;;;8.91;49.96;102891.78;5047818;28;20098;-76
2023/04/10 09:11:02;;;;;;;2.45;0.30;;;;;;;8.95;49.53;102901.41;5044611;28;20055;-76
2023/04/10 09:13:39;;;;;;;0.63;0.28;;;;;;;8.96;48.98;102904.03;5044304;28;20056;-76
2023/04/10 09:16:07;;;;;;;1.23;0.30;;;;;;;9.00;48.71;102894.59;5043087;28;20049;-76
2023/04/10 09:18:45;;;;;;;1.38;0.57;;;;;;;9.07;48.81;102899.06;5042259;28;20041;-76
2023/04/10 09:21:14;;;;;;;2.85;0.68;;;;;;;9.11;48.15;102887.00;5044142;28;20045;-76
2023/04/10 09:23:41;;;;;;;1.88;0.60;;;;;;;9.14;48.58;102885.34;5040049;28;20711;-76
2023/04/10 09:26:27;;;;;;;1.75;0.40;;;;;;;9.21;48.57;102888.94;5048732;28;20061;-76
2023/04/10 09:29:03;;;;;;;5.63;0.20;;;;;;;9.26;48.09;102889.03;5040742;28;20092;-76
2023/04/10 09:31:33;;;;;;;1.67;0.30;;;;;;;9.29;47.62;102886.50;5040003;28;20046;-76
2023/04/10 09:34:14;;;;;;;4.40;0.50;;;;;;;9.30;48.13;102875.22;5042168;28;20050;-76
2023/04/10 09:36:41;;;;;;;1.65;0.70;;;;;;;9.41;48.06;102878.91;5044114;28;20050;-76
2023/04/10 09:39:09;;;;;;;1.10;0.32;;;;;;;9.49;47.12;102884.28;5042549;28;20057;-76
2023/04/10 09:41:48;;;;;;;2.10;0.40;;;;;;;9.51;47.00;102870.44;5035634;28;20045;-77
2023/04/10 09:44:18;;;;;;;0.80;0.50;;;;;;;9.58;46.38;102874.91;5040235;28;20056;-76
2023/04/10 09:46:45;;;;;;;2.15;0.50;;;;;;;9.62;46.74;102875.84;5043876;28;20099;-76
2023/04/10 09:49:12;;;;;;;1.13;0.40;;;;;;;9.68;46.62;102871.63;5038809;28;20060;-76
2023/04/10 09:51:39;;;;;;;1.02;0.30;;;;;;;9.71;46.08;102869.94;5041440;28;20749;-76
2023/04/10 09:54:06;;;;;;;1.05;0.35;;;;;;;9.73;45.76;102863.00;5045755;28;20767;-76
2023/04/10 09:56:38;;;;;;;1.98;0.40;;;;;;;9.75;45.32;102866.53;5040543;28;20042;-76
2023/04/10 09:59:07;;;;;;;2.25;1.17;;;;;;;9.76;45.38;102858.75;5037717;28;20055;-78
2023/04/10 10:01:39;;;;;;;0.70;0.43;;;;;;;9.79;45.74;102858.78;5038579;28;20457;-75
2023/04/10 10:04:08;;;;;;;1.58;0.40;;;;;;;9.85;45.20;102863.25;5041234;28;20069;-77
2023/04/10 10:06:35;;;;;;;0.95;0.32;;;;;;;9.88;44.59;102858.94;5036473;28;20053;-76
2023/04/10 10:09:04;;;;;;;1.00;0.30;;;;;;;9.90;44.15;102845.91;5034966;28;20055;-76
2023/04/10 10:11:33;;;;;;;1.58;0.30;;;;;;;9.91;44.14;102851.16;5034951;28;20428;-76
2023/04/10 10:14:03;;;;;;;2.58;0.45;;;;;;;9.90;44.00;102846.81;5041427;28;20052;-75
2023/04/10 10:16:38;;;;;;;0.50;0.30;;;;;;;9.95;44.08;102851.22;5039795;28;20075;-76
2023/04/10 10:19:12;;;;;;;0.80;0.20;;;;;;;9.94;43.86;102841.63;5040347;28;20489;-76
2023/04/10 10:21:42;;;;;;;1.27;0.30;;;;;;;9.99;43.59;102840.88;5039998;28;20519;-76
2023/04/10 10:24:09;;;;;;;1.05;0.40;;;;;;;9.96;43.41;102837.28;5041226;28;20080;-76
2023/04/10 10:26:39;;;;;;;0.65;0.45;;;;;;;9.98;44.06;102836.47;5040346;28;20379;-76
2023/04/10 10:29:09;;;;;;;2.83;0.30;;;;;;;9.97;44.40;102836.47;5038145;28;20588;-77
2023/04/10 10:31:38;;;;;;;1.13;0.35;;;;;;;10.01;44.55;102833.91;5041049;28;20132;-76
2023/04/10 10:34:07;;;;;;;3.80;0.45;;;;;;;10.03;44.24;102831.34;5039953;28;20049;-76
2023/04/10 10:36:35;;;;;;;0.70;0.30;;;;;;;10.06;44.87;102837.50;5038960;28;20102;-76
2023/04/10 10:39:20;;;;;;;3.50;0.82;;;;;;;10.08;45.03;102835.78;5041072;28;20057;-76
2023/04/10 10:42:00;;;;;;;2.05;0.30;;;;;;;10.09;45.19;102829.69;5040337;28;20094;-75
2023/04/10 10:44:34;;;;;;;0.50;0.30;;;;;;;10.11;44.83;102830.63;5035109;28;20045;-76
2023/04/10 10:47:10;;;;;;;1.35;0.30;;;;;;;10.14;44.80;102827.19;5037951;28;20045;-76
2023/04/10 10:49:57;;;;;;;0.70;0.30;;;;;;;10.17;45.13;102823.75;5038194;28;20106;-76
2023/04/10 10:52:48;;;;;;;0.80;0.30;;;;;;;10.17;44.91;102821.13;5034381;28;20045;-76
2023/04/10 10:55:33;;;;;;;0.80;0.30;;;;;;;10.16;44.96;102820.25;5033301;28;20402;-76
2023/04/10 10:58:01;;;;;;;0.68;0.30;;;;;;;10.15;44.17;102821.09;5034303;28;20057;-76
2023/04/10 11:01:07;;;;;;;6.32;0.57;;;;;;;10.14;44.99;102816.72;5043553;28;20486;-76
2023/04/10 11:03:36;;;;;;;1.48;0.25;;;;;;;10.13;44.88;102808.03;5039483;28;20548;-76
2023/04/10 11:06:06;;;;;;;0.57;0.47;;;;;;;10.13;44.41;102807.13;5037872;28;20468;-75
2023/04/10 11:08:44;;;;;;;3.03;0.70;;;;;;;10.14;44.64;102803.69;5043114;28;20053;-75
2023/04/10 11:11:17;;;;;;;0.40;0.20;;;;;;;10.16;44.56;102808.91;5043872;28;20136;-76
2023/04/10 11:14:16;;;;;;;0.73;0.20;;;;;;;10.14;44.53;102804.53;5045109;28;20051;-76
2023/04/10 11:16:46;;;;;;;0.32;0.20;;;;;;;10.12;44.64;102801.03;5049020;28;20095;-76
2023/04/10 11:19:16;;;;;;;0.52;0.20;;;;;;;10.11;44.50;102799.28;5041551;28;20080;-76
2023/04/10 11:22:06;;;;;;;1.08;0.20;;;;;;;10.13;44.75;102794.97;5045351;28;20052;-76
2023/04/10 11:24:53;;;;;;;0.57;0.47;;;;;;;10.12;44.87;102798.41;5038114;28;20053;-75
2023/04/10 11:27:53;;;;;;;0.30;0.20;;;;;;;10.09;44.63;102795.75;5035748;28;20053;-75
2023/04/10 11:30:30;;;;;;;0.70;0.30;;;;;;;10.05;44.22;102793.09;5050560;28;20053;-76
2023/04/10 11:32:57;;;;;;;0.50;0.30;;;;;;;10.04;44.70;102793.91;5044287;28;20559;-75
2023/04/10 11:35:27;;;;;;;1.73;0.50;;;;;;;10.03;44.58;102784.34;5041539;28;20059;-75
2023/04/10 11:38:11;;;;;;;1.10;0.22;;;;;;;10.00;44.73;102784.28;5049239;28;20527;-75